createdAt,value
2023-05-10T00:00:23.550Z,16.60
2023-05-10T00:02:50.820Z,16.50
2023-05-10T00:05:17.862Z,16.50
2023-05-10T00:07:46.105Z,16.50
2023-05-10T00:10:13.352Z,16.40
2023-05-10T00:12:40.401Z,16.40
2023-05-10T00:15:09.317Z,16.40
2023-05-10T00:17:36.296Z,16.40
2023-05-10T00:20:03.701Z,16.40
2023-05-10T00:22:30.561Z,16.30
2023-05-10T00:24:57.228Z,16.30
2023-05-10T00:27:24.159Z,16.30
2023-05-10T00:29:50.967Z,16.30
2023-05-10T00:32:18.065Z,16.30
2023-05-10T00:34:45.043Z,16.20
2023-05-10T00:37:12.187Z,16.20
2023-05-10T00:39:38.879Z,16.20
2023-05-10T00:42:05.613Z,16.20
2023-05-10T00:44:32.386Z,16.10
2023-05-10T00:47:00.678Z,16.10
2023-05-10T00:49:27.744Z,16.10
2023-05-10T00:51:54.641Z,16.10
2023-05-10T00:54:21.737Z,16.10
2023-05-10T00:56:50.230Z,16.00
2023-05-10T00:59:18.590Z,16.00
2023-05-10T01:01:46.592Z,16.00
2023-05-10T01:04:14.730Z,16.00
2023-05-10T01:06:42.610Z,16.00
2023-05-10T01:09:09.579Z,15.90
2023-05-10T01:11:38.102Z,15.90
2023-05-10T01:14:05.693Z,15.90
2023-05-10T01:16:39.372Z,15.90
2023-05-10T01:19:22.972Z,15.90
2023-05-10T01:21:58.477Z,15.80
2023-05-10T01:24:49.933Z,15.70
2023-05-10T01:27:45.822Z,15.80
2023-05-10T01:30:46.749Z,15.70
2023-05-10T01:33:20.538Z,15.70
2023-05-10T01:35:56.485Z,15.60
2023-05-10T01:38:59.165Z,15.60
2023-05-10T01:41:37.869Z,15.50
2023-05-10T01:44:27.763Z,15.50
2023-05-10T01:47:18.292Z,15.50
2023-05-10T01:49:51.042Z,15.40
2023-05-10T01:52:22.607Z,15.40
2023-05-10T01:55:05.953Z,15.40
2023-05-10T01:57:35.165Z,15.40
2023-05-10T02:00:04.739Z,15.30
2023-05-10T02:02:39.865Z,15.30
2023-05-10T02:05:08.260Z,15.30
2023-05-10T02:07:37.828Z,15.30
2023-05-10T02:10:10.389Z,15.30
2023-05-10T02:12:40.572Z,15.20
2023-05-10T02:15:08.898Z,15.20
2023-05-10T02:17:38.096Z,15.20
2023-05-10T02:20:07.296Z,15.20
2023-05-10T02:22:35.958Z,15.10
2023-05-10T02:25:04.908Z,15.10
2023-05-10T02:27:32.657Z,15.10
2023-05-10T02:29:59.840Z,15.10
2023-05-10T02:32:28.783Z,15.10
2023-05-10T02:34:57.079Z,15.10
2023-05-10T02:37:25.017Z,15.00
2023-05-10T02:39:54.830Z,15.00
2023-05-10T02:42:26.234Z,15.00
2023-05-10T02:44:56.688Z,14.90
2023-05-10T02:47:23.789Z,15.00
2023-05-10T02:49:50.642Z,14.90
2023-05-10T02:52:23.668Z,14.90
2023-05-10T02:54:53.904Z,14.90
2023-05-10T02:57:31.289Z,14.80
2023-05-10T02:59:58.147Z,14.90
2023-05-10T03:02:24.978Z,14.80
2023-05-10T03:04:52.199Z,14.90
2023-05-10T03:07:22.315Z,14.90
2023-05-10T03:09:52.930Z,14.80
2023-05-10T03:12:51.901Z,14.80
2023-05-10T03:15:57.097Z,14.80
2023-05-10T03:18:29.787Z,14.80
2023-05-10T03:21:06.311Z,14.80
2023-05-10T03:23:57.074Z,14.70
2023-05-10T03:26:28.478Z,14.70
2023-05-10T03:28:56.594Z,14.70
2023-05-10T03:31:23.591Z,14.70
2023-05-10T03:33:52.154Z,14.60
2023-05-10T03:36:19.631Z,14.70
2023-05-10T03:38:46.356Z,14.60
2023-05-10T03:41:13.417Z,14.60
2023-05-10T03:43:40.995Z,14.60
2023-05-10T03:46:07.839Z,14.60
2023-05-10T03:48:34.710Z,14.70
2023-05-10T03:51:01.426Z,14.70
2023-05-10T03:53:28.100Z,14.60
2023-05-10T03:55:54.848Z,14.70
2023-05-10T03:58:21.484Z,14.60
2023-05-10T04:00:48.228Z,14.60
2023-05-10T04:03:15.381Z,14.60
2023-05-10T04:05:42.273Z,14.60
2023-05-10T04:08:09.009Z,14.60
2023-05-10T04:10:35.737Z,14.60
2023-05-10T04:13:02.555Z,14.70
2023-05-10T04:15:29.710Z,14.70
2023-05-10T04:17:56.462Z,14.70
2023-05-10T04:20:23.651Z,14.70
2023-05-10T04:22:50.349Z,14.70
2023-05-10T04:25:17.221Z,14.70
2023-05-10T04:27:43.931Z,14.80
2023-05-10T04:30:11.032Z,14.80
2023-05-10T04:32:38.000Z,14.70
2023-05-10T04:35:05.791Z,14.80
2023-05-10T04:37:32.498Z,14.80
2023-05-10T04:40:00.902Z,14.90
2023-05-10T04:42:27.628Z,14.90
2023-05-10T04:44:54.237Z,14.90
2023-05-10T04:47:21.028Z,14.90
2023-05-10T04:49:48.049Z,14.90
2023-05-10T04:52:16.270Z,15.00
2023-05-10T04:54:43.190Z,15.00
2023-05-10T04:57:09.957Z,15.10
2023-05-10T04:59:38.422Z,15.10
2023-05-10T05:02:06.281Z,15.10
2023-05-10T05:04:33.181Z,15.10
2023-05-10T05:07:00.144Z,15.10
2023-05-10T05:09:26.887Z,15.10
2023-05-10T05:11:53.776Z,15.20
2023-05-10T05:14:22.225Z,15.20
2023-05-10T05:16:48.948Z,15.20
2023-05-10T05:19:15.719Z,15.30
2023-05-10T05:21:42.620Z,15.30
2023-05-10T05:24:09.671Z,15.40
2023-05-10T05:26:36.440Z,15.40
2023-05-10T05:29:03.372Z,15.40
2023-05-10T05:31:30.592Z,15.50
2023-05-10T05:33:57.401Z,15.50
2023-05-10T05:36:24.373Z,15.60
2023-05-10T05:38:51.201Z,15.60
2023-05-10T05:41:17.980Z,15.60
2023-05-10T05:43:45.345Z,15.70
2023-05-10T05:46:12.509Z,15.80
2023-05-10T05:48:39.404Z,15.90
2023-05-10T05:51:07.356Z,15.90
2023-05-10T05:53:34.480Z,15.90
2023-05-10T05:56:01.268Z,16.00
2023-05-10T05:58:28.523Z,16.00
2023-05-10T06:00:55.279Z,16.10
2023-05-10T06:03:22.479Z,16.10
2023-05-10T06:05:49.467Z,16.20
2023-05-10T06:08:16.167Z,16.20
2023-05-10T06:10:43.022Z,16.30
2023-05-10T06:13:09.867Z,16.40
2023-05-10T06:15:36.709Z,16.50
2023-05-10T06:18:05.126Z,16.60
2023-05-10T06:20:32.616Z,16.60
2023-05-10T06:22:59.778Z,16.70
2023-05-10T06:25:26.653Z,16.70
2023-05-10T06:27:58.198Z,16.80
2023-05-10T06:30:29.406Z,16.90
2023-05-10T06:32:56.734Z,17.00
2023-05-10T06:35:23.898Z,17.00
2023-05-10T06:37:51.032Z,17.10
2023-05-10T06:40:18.048Z,17.20
2023-05-10T06:42:46.286Z,17.30
2023-05-10T06:45:13.777Z,17.30
2023-05-10T06:47:40.484Z,17.40
2023-05-10T06:50:08.807Z,17.40
2023-05-10T06:52:35.635Z,17.50
2023-05-10T06:55:03.055Z,17.60
2023-05-10T06:57:31.619Z,17.60
2023-05-10T06:59:59.990Z,17.70
2023-05-10T07:02:27.220Z,17.70
2023-05-10T07:04:54.271Z,17.80
2023-05-10T07:07:21.031Z,17.90
2023-05-10T07:09:47.951Z,17.90
2023-05-10T07:12:15.863Z,18.00
2023-05-10T07:14:43.497Z,18.10
2023-05-10T07:17:10.944Z,18.10
2023-05-10T07:19:37.796Z,18.20
2023-05-10T07:22:04.611Z,18.30
2023-05-10T07:24:32.305Z,18.30
2023-05-10T07:26:59.093Z,18.40
2023-05-10T07:29:26.045Z,18.40
2023-05-10T07:31:52.912Z,18.40
2023-05-10T07:34:19.729Z,18.50
2023-05-10T07:36:46.545Z,18.60
2023-05-10T07:39:21.223Z,18.70
2023-05-10T07:41:53.236Z,18.70
2023-05-10T07:44:21.307Z,18.70
2023-05-10T07:46:49.581Z,18.80
2023-05-10T07:49:16.800Z,18.90
2023-05-10T07:51:43.748Z,18.90
2023-05-10T07:54:10.557Z,19.00
2023-05-10T07:56:37.477Z,19.00
2023-05-10T07:59:06.068Z,19.00
2023-05-10T08:01:33.768Z,19.10
2023-05-10T08:04:01.491Z,19.20
2023-05-10T08:06:30.687Z,19.20
2023-05-10T08:08:57.731Z,19.30
2023-05-10T08:11:24.612Z,19.30
2023-05-10T08:13:52.047Z,19.40
2023-05-10T08:16:19.364Z,19.50
2023-05-10T08:18:48.032Z,19.50
2023-05-10T08:21:15.564Z,19.60
2023-05-10T08:23:42.334Z,19.60
2023-05-10T08:26:08.948Z,19.70
2023-05-10T08:28:35.696Z,19.80
2023-05-10T08:31:02.447Z,19.80
2023-05-10T08:33:29.250Z,19.90
2023-05-10T08:35:56.002Z,20.00
2023-05-10T08:38:22.853Z,20.10
2023-05-10T08:40:51.850Z,20.20
2023-05-10T08:43:19.184Z,20.30
2023-05-10T08:45:48.018Z,20.40
2023-05-10T08:48:16.234Z,20.50
2023-05-10T08:50:43.967Z,20.60
2023-05-10T08:53:12.912Z,20.70
2023-05-10T08:55:41.317Z,20.80
2023-05-10T08:58:08.186Z,20.90
2023-05-10T09:00:36.066Z,20.90
2023-05-10T09:03:05.163Z,21.00
2023-05-10T09:05:32.226Z,21.10
2023-05-10T09:08:01.463Z,21.20
2023-05-10T09:10:29.283Z,21.30
2023-05-10T09:12:59.305Z,21.40
2023-05-10T09:15:26.900Z,21.40
2023-05-10T09:17:53.922Z,21.60
2023-05-10T09:20:21.456Z,21.70
2023-05-10T09:22:48.381Z,21.70
2023-05-10T09:25:17.318Z,21.90
2023-05-10T09:27:48.389Z,22.00
2023-05-10T09:30:27.658Z,22.10
2023-05-10T09:32:55.422Z,22.20
2023-05-10T09:35:25.082Z,22.40
2023-05-10T09:37:56.095Z,22.60
2023-05-10T09:40:25.013Z,22.80
2023-05-10T09:43:07.823Z,22.90
2023-05-10T09:45:38.669Z,23.10
2023-05-10T09:48:06.081Z,23.30
2023-05-10T09:50:32.866Z,23.50
2023-05-10T09:53:04.682Z,23.70
2023-05-10T09:55:41.582Z,24.00
2023-05-10T09:58:11.664Z,24.10
2023-05-10T10:00:41.149Z,24.20
2023-05-10T10:03:16.257Z,24.30
2023-05-10T10:05:44.619Z,24.60
2023-05-10T10:08:12.841Z,24.70
2023-05-10T10:10:41.620Z,24.90
2023-05-10T10:13:08.823Z,25.00
2023-05-10T10:15:36.126Z,25.20
2023-05-10T10:18:04.981Z,25.50
2023-05-10T10:20:31.904Z,25.70
2023-05-10T10:22:58.498Z,25.90
2023-05-10T10:25:26.423Z,26.10
2023-05-10T10:27:52.995Z,26.20
2023-05-10T10:30:42.693Z,26.30
2023-05-10T10:33:40.906Z,26.40
2023-05-10T10:36:08.270Z,26.50
2023-05-10T10:38:47.228Z,26.70
2023-05-10T10:41:31.670Z,26.90
2023-05-10T10:44:23.304Z,27.00
2023-05-10T10:47:24.321Z,27.10
2023-05-10T10:50:04.408Z,27.20
2023-05-10T10:52:36.342Z,27.30
2023-05-10T10:55:06.305Z,27.40
2023-05-10T10:57:43.126Z,27.50
2023-05-10T11:00:29.390Z,27.60
2023-05-10T11:03:07.941Z,27.80
2023-05-10T11:05:42.348Z,27.80
2023-05-10T11:08:17.144Z,27.90
2023-05-10T11:11:07.819Z,28.10
2023-05-10T11:13:51.185Z,28.10
2023-05-10T11:16:26.624Z,28.20
2023-05-10T11:19:11.443Z,28.30
2023-05-10T11:21:47.815Z,28.40
2023-05-10T11:24:34.557Z,28.40
2023-05-10T11:27:01.991Z,28.50
2023-05-10T11:29:28.864Z,28.50
2023-05-10T11:31:58.988Z,28.50
2023-05-10T11:34:34.770Z,28.60
2023-05-10T11:37:02.116Z,28.60
2023-05-10T11:39:30.199Z,28.80
2023-05-10T11:41:58.046Z,29.00
2023-05-10T11:44:30.011Z,29.20
2023-05-10T11:47:02.796Z,29.30
2023-05-10T11:49:29.851Z,29.40
2023-05-10T11:52:09.627Z,29.60
2023-05-10T11:54:36.991Z,29.60
2023-05-10T11:57:04.061Z,29.50
2023-05-10T11:59:31.075Z,29.40
2023-05-10T12:01:58.177Z,29.50
2023-05-10T12:04:25.786Z,29.50
2023-05-10T12:06:52.574Z,29.60
2023-05-10T12:09:25.477Z,29.80
2023-05-10T12:11:58.603Z,30.00
2023-05-10T12:14:25.769Z,30.00
2023-05-10T12:16:52.676Z,30.20
2023-05-10T12:19:21.526Z,30.30
2023-05-10T12:21:48.877Z,30.30
2023-05-10T12:24:18.993Z,30.30
2023-05-10T12:26:46.863Z,30.40
2023-05-10T12:29:18.408Z,30.40
2023-05-10T12:31:52.215Z,30.40
2023-05-10T12:34:39.651Z,30.30
2023-05-10T12:37:06.450Z,30.30
2023-05-10T12:39:47.030Z,30.30
2023-05-10T12:42:13.892Z,30.40
2023-05-10T12:44:41.290Z,30.50
2023-05-10T12:47:08.298Z,30.70
2023-05-10T12:49:35.212Z,30.80
2023-05-10T12:52:02.167Z,30.90
2023-05-10T12:54:29.025Z,30.80
2023-05-10T12:56:56.034Z,30.80
2023-05-10T12:59:23.871Z,30.90
2023-05-10T13:01:50.899Z,30.90
2023-05-10T13:04:17.596Z,30.80
2023-05-10T13:06:44.398Z,30.80
2023-05-10T13:09:11.166Z,30.80
2023-05-10T13:11:38.150Z,30.70
2023-05-10T13:14:04.918Z,30.60
2023-05-10T13:16:32.208Z,30.50
2023-05-10T13:18:59.544Z,30.50
2023-05-10T13:21:26.437Z,30.40
2023-05-10T13:23:53.756Z,30.30
2023-05-10T13:26:21.045Z,30.40
2023-05-10T13:28:47.786Z,30.40
2023-05-10T13:31:14.675Z,30.30
2023-05-10T13:33:41.415Z,30.20
2023-05-10T13:36:08.414Z,30.10
2023-05-10T13:38:35.251Z,30.00
2023-05-10T13:41:01.915Z,30.00
2023-05-10T13:43:30.077Z,30.00
2023-05-10T13:45:56.972Z,29.90
2023-05-10T13:48:23.695Z,29.90
2023-05-10T13:50:50.981Z,29.60
2023-05-10T13:53:17.851Z,29.40
2023-05-10T13:55:44.677Z,29.20
2023-05-10T13:58:11.757Z,29.10
2023-05-10T14:00:38.515Z,28.90
2023-05-10T14:03:08.108Z,28.80
2023-05-10T14:05:35.910Z,28.60
2023-05-10T14:08:02.684Z,28.60
2023-05-10T14:10:29.449Z,28.60
2023-05-10T14:12:56.494Z,28.60
2023-05-10T14:15:23.356Z,28.60
2023-05-10T14:17:50.207Z,28.60
2023-05-10T14:20:17.080Z,28.70
2023-05-10T14:22:44.108Z,28.70
2023-05-10T14:25:11.201Z,28.70
2023-05-10T14:27:38.274Z,28.60
2023-05-10T14:30:05.620Z,28.60
2023-05-10T14:32:33.271Z,28.50
2023-05-10T14:35:00.762Z,28.50
2023-05-10T14:37:27.914Z,28.40
2023-05-10T14:39:55.143Z,28.30
2023-05-10T14:42:22.356Z,28.00
2023-05-10T14:44:49.069Z,27.90
2023-05-10T14:47:15.882Z,27.60
2023-05-10T14:49:42.622Z,27.30
2023-05-10T14:52:09.277Z,27.10
2023-05-10T14:54:36.171Z,26.90
2023-05-10T14:57:04.559Z,26.60
2023-05-10T14:59:31.231Z,26.40
2023-05-10T15:01:58.591Z,26.20
2023-05-10T15:04:27.080Z,26.10
2023-05-10T15:07:00.007Z,25.90
2023-05-10T15:09:28.484Z,25.70
2023-05-10T15:11:55.894Z,25.60
2023-05-10T15:14:23.597Z,25.50
2023-05-10T15:16:50.335Z,25.40
2023-05-10T15:19:16.935Z,25.40
2023-05-10T15:21:45.519Z,25.20
2023-05-10T15:24:12.212Z,25.20
2023-05-10T15:26:38.952Z,25.00
2023-05-10T15:29:05.708Z,24.90
2023-05-10T15:31:32.376Z,24.80
2023-05-10T15:34:00.201Z,24.70
2023-05-10T15:36:27.005Z,24.50
2023-05-10T15:38:55.106Z,24.40
2023-05-10T15:41:21.862Z,24.30
2023-05-10T15:43:48.546Z,24.20
2023-05-10T15:46:15.226Z,24.20
2023-05-10T15:48:42.534Z,24.10
2023-05-10T15:51:09.745Z,23.90
2023-05-10T15:53:36.460Z,23.80
2023-05-10T15:56:04.201Z,23.60
2023-05-10T15:58:31.032Z,23.40
2023-05-10T16:00:57.926Z,23.30
2023-05-10T16:03:24.912Z,23.20
2023-05-10T16:05:51.765Z,23.10
2023-05-10T16:08:18.455Z,23.00
2023-05-10T16:10:45.091Z,22.90
2023-05-10T16:13:11.826Z,22.80
2023-05-10T16:15:38.551Z,22.70
2023-05-10T16:18:05.571Z,22.70
2023-05-10T16:20:33.028Z,22.70
2023-05-10T16:23:07.256Z,22.60
2023-05-10T16:25:34.245Z,22.70
2023-05-10T16:28:01.421Z,22.60
2023-05-10T16:30:30.268Z,22.60
2023-05-10T16:32:58.075Z,22.60
2023-05-10T16:35:25.100Z,22.50
2023-05-10T16:37:52.133Z,22.50
2023-05-10T16:40:19.454Z,22.40
2023-05-10T16:42:46.518Z,22.40
2023-05-10T16:45:13.403Z,22.40
2023-05-10T16:47:41.037Z,22.40
2023-05-10T16:50:08.778Z,22.40
2023-05-10T16:52:36.220Z,22.30
2023-05-10T16:55:04.364Z,22.30
2023-05-10T16:57:32.990Z,22.20
2023-05-10T16:59:59.764Z,22.20
2023-05-10T17:02:27.170Z,22.20
2023-05-10T17:04:56.094Z,22.20
2023-05-10T17:07:26.420Z,22.10
2023-05-10T17:09:53.365Z,22.10
2023-05-10T17:12:20.695Z,22.00
2023-05-10T17:14:47.857Z,21.90
2023-05-10T17:17:14.605Z,21.80
2023-05-10T17:19:45.248Z,21.80
2023-05-10T17:22:13.485Z,21.70
2023-05-10T17:24:40.345Z,21.70
2023-05-10T17:27:07.049Z,21.60
2023-05-10T17:29:33.955Z,21.60
2023-05-10T17:32:00.938Z,21.60
2023-05-10T17:34:28.442Z,21.60
2023-05-10T17:36:55.631Z,21.50
2023-05-10T17:39:22.530Z,21.50
2023-05-10T17:41:49.238Z,21.40
2023-05-10T17:44:16.024Z,21.40
2023-05-10T17:46:42.605Z,21.40
2023-05-10T17:49:09.718Z,21.40
2023-05-10T17:51:36.623Z,21.30
2023-05-10T17:54:03.471Z,21.30
2023-05-10T17:56:30.307Z,21.30
2023-05-10T17:58:57.204Z,21.30
2023-05-10T18:01:23.871Z,21.30
2023-05-10T18:03:51.845Z,21.20
2023-05-10T18:06:19.990Z,21.20
2023-05-10T18:08:46.736Z,21.20
2023-05-10T18:11:13.583Z,21.20
2023-05-10T18:13:40.602Z,21.10
2023-05-10T18:16:08.879Z,21.00
2023-05-10T18:18:35.779Z,21.00
2023-05-10T18:21:03.814Z,21.00
2023-05-10T18:23:30.596Z,20.90
2023-05-10T18:25:57.659Z,20.80
2023-05-10T18:28:24.623Z,20.80
2023-05-10T18:30:51.394Z,20.80
2023-05-10T18:33:18.256Z,20.80
2023-05-10T18:35:44.967Z,20.70
2023-05-10T18:38:12.523Z,20.70
2023-05-10T18:40:40.059Z,20.60
2023-05-10T18:43:06.883Z,20.60
2023-05-10T18:45:33.620Z,20.60
2023-05-10T18:48:00.241Z,20.60
2023-05-10T18:50:26.960Z,20.70
2023-05-10T18:52:56.293Z,20.70
2023-05-10T18:55:25.736Z,20.70
2023-05-10T18:57:52.621Z,20.70
2023-05-10T19:00:20.566Z,20.70
2023-05-10T19:02:47.801Z,20.70
2023-05-10T19:05:15.389Z,20.70
2023-05-10T19:07:43.811Z,20.70
2023-05-10T19:10:12.898Z,20.60
2023-05-10T19:12:41.821Z,20.60
2023-05-10T19:15:09.002Z,20.50
2023-05-10T19:17:36.551Z,20.50
2023-05-10T19:20:04.178Z,20.50
2023-05-10T19:22:45.380Z,20.40
2023-05-10T19:25:19.013Z,20.40
2023-05-10T19:27:46.466Z,20.40
2023-05-10T19:30:13.199Z,20.40
2023-05-10T19:32:40.004Z,20.30
2023-05-10T19:35:06.921Z,20.40
2023-05-10T19:37:33.634Z,20.40
2023-05-10T19:40:00.374Z,20.30
2023-05-10T19:42:27.148Z,20.30
2023-05-10T19:44:53.816Z,20.20
2023-05-10T19:47:20.484Z,20.30
2023-05-10T19:49:47.126Z,20.20
2023-05-10T19:52:13.828Z,20.20
2023-05-10T19:54:40.432Z,20.10
2023-05-10T19:57:07.066Z,20.10
2023-05-10T19:59:33.681Z,20.10
2023-05-10T20:02:00.310Z,20.00
2023-05-10T20:04:28.778Z,20.00
2023-05-10T20:06:55.561Z,20.00
2023-05-10T20:09:22.176Z,20.00
2023-05-10T20:11:49.346Z,20.00
2023-05-10T20:14:16.590Z,19.90
2023-05-10T20:16:43.255Z,19.80
2023-05-10T20:19:11.728Z,19.80
2023-05-10T20:21:38.440Z,19.70
2023-05-10T20:24:06.774Z,19.70
2023-05-10T20:26:34.899Z,19.70
2023-05-10T20:29:01.589Z,19.60
2023-05-10T20:31:28.491Z,19.50
2023-05-10T20:33:55.291Z,19.50
2023-05-10T20:36:23.516Z,19.40
2023-05-10T20:38:50.420Z,19.40
2023-05-10T20:41:17.111Z,19.30
2023-05-10T20:43:43.917Z,19.30
2023-05-10T20:46:11.457Z,19.30
2023-05-10T20:48:38.292Z,19.20
2023-05-10T20:51:05.075Z,19.10
2023-05-10T20:53:31.773Z,19.10
2023-05-10T20:55:58.635Z,19.10
2023-05-10T20:58:25.376Z,19.10
2023-05-10T21:00:52.005Z,19.10
2023-05-10T21:03:18.754Z,19.10
2023-05-10T21:05:45.563Z,19.10
2023-05-10T21:08:12.470Z,19.10
2023-05-10T21:10:39.981Z,19.10
2023-05-10T21:13:06.981Z,19.10
2023-05-10T21:15:34.016Z,19.10
2023-05-10T21:18:02.348Z,19.10
2023-05-10T21:20:30.014Z,19.00
2023-05-10T21:22:56.798Z,19.00
2023-05-10T21:25:23.654Z,18.90
2023-05-10T21:27:50.277Z,18.90
2023-05-10T21:30:17.535Z,18.90
2023-05-10T21:32:44.480Z,18.90
2023-05-10T21:35:11.143Z,18.90
2023-05-10T21:37:37.818Z,18.90
2023-05-10T21:40:04.892Z,18.90
2023-05-10T21:42:32.003Z,18.80
2023-05-10T21:44:58.682Z,18.70
2023-05-10T21:47:25.341Z,18.70
2023-05-10T21:49:51.940Z,18.70
2023-05-10T21:52:18.734Z,18.70
2023-05-10T21:54:45.443Z,18.80
2023-05-10T21:57:12.050Z,18.80
2023-05-10T21:59:39.456Z,18.80
2023-05-10T22:02:06.162Z,18.80
2023-05-10T22:04:32.810Z,18.80
2023-05-10T22:06:59.435Z,18.80
2023-05-10T22:09:26.091Z,18.90
2023-05-10T22:11:52.773Z,18.80
2023-05-10T22:14:19.519Z,18.80
2023-05-10T22:16:46.215Z,18.70
2023-05-10T22:19:12.900Z,18.50
2023-05-10T22:21:39.464Z,18.40
2023-05-10T22:24:06.358Z,18.30
2023-05-10T22:26:33.006Z,18.20
2023-05-10T22:28:59.621Z,18.10
2023-05-10T22:31:26.749Z,18.00
2023-05-10T22:33:53.402Z,17.90
2023-05-10T22:36:20.028Z,17.80
2023-05-10T22:38:46.636Z,17.70
2023-05-10T22:41:13.248Z,17.70
2023-05-10T22:43:39.863Z,17.60
2023-05-10T22:46:06.502Z,17.50
2023-05-10T22:48:35.472Z,17.50
2023-05-10T22:51:02.038Z,17.40
2023-05-10T22:53:28.634Z,17.40
2023-05-10T22:55:55.424Z,17.30
2023-05-10T22:58:22.178Z,17.20
2023-05-10T23:00:48.784Z,17.10
2023-05-10T23:03:15.485Z,17.00
2023-05-10T23:05:42.143Z,17.00
2023-05-10T23:08:08.848Z,16.90
2023-05-10T23:10:37.826Z,16.80
2023-05-10T23:13:06.276Z,16.80
2023-05-10T23:15:33.180Z,16.80
2023-05-10T23:18:02.803Z,16.70
2023-05-10T23:20:29.782Z,16.70
2023-05-10T23:22:56.726Z,16.70
2023-05-10T23:25:23.410Z,16.60
2023-05-10T23:27:50.182Z,16.60
2023-05-10T23:30:17.294Z,16.60
2023-05-10T23:32:44.179Z,16.60
2023-05-10T23:35:10.956Z,16.50
2023-05-10T23:37:37.761Z,16.60
2023-05-10T23:40:05.013Z,16.50
2023-05-10T23:42:32.742Z,16.50
2023-05-10T23:44:59.377Z,16.50
2023-05-10T23:47:26.375Z,16.40
2023-05-10T23:49:52.968Z,16.40
2023-05-10T23:52:22.787Z,16.40
2023-05-10T23:54:49.520Z,16.30
2023-05-10T23:57:16.530Z,16.30
2023-05-10T23:59:43.144Z,16.20
